sensor_id;sensor_type;location;lat;lon;timestamp;temperature;humidity
53776;DHT22;44276;49.534;6.378;2024-03-07T00:01:45;4.00;99.90
53776;DHT22;44276;49.534;6.378;2024-03-07T00:04:14;3.90;99.90
53776;DHT22;44276;49.534;6.378;2024-03-07T00:06:44;3.90;99.90
53776;DHT22;44276;49.534;6.378;2024-03-07T00:09:12;4.20;99.90
53776;DHT22;44276;49.534;6.378;2024-03-07T00:11:42;4.30;99.90
53776;DHT22;44276;49.534;6.378;2024-03-07T00:14:12;4.30;99.90
53776;DHT22;44276;49.534;6.378;2024-03-07T00:16:40;4.20;99.90
53776;DHT22;44276;49.534;6.378;2024-03-07T00:19:09;4.00;99.90
53776;DHT22;44276;49.534;6.378;2024-03-07T00:21:37;4.00;99.90
53776;DHT22;44276;49.534;6.378;2024-03-07T00:24:07;4.10;99.90
53776;DHT22;44276;49.534;6.378;2024-03-07T00:26:35;4.20;99.90
53776;DHT22;44276;49.534;6.378;2024-03-07T00:29:04;4.20;99.90
53776;DHT22;44276;49.534;6.378;2024-03-07T00:31:33;4.20;99.90
53776;DHT22;44276;49.534;6.378;2024-03-07T00:34:02;4.20;99.90
53776;DHT22;44276;49.534;6.378;2024-03-07T00:36:42;4.40;99.90
53776;DHT22;44276;49.534;6.378;2024-03-07T00:39:12;4.50;99.90
53776;DHT22;44276;49.534;6.378;2024-03-07T00:41:41;4.50;99.90
53776;DHT22;44276;49.534;6.378;2024-03-07T00:44:09;4.60;99.90
53776;DHT22;44276;49.534;6.378;2024-03-07T00:46:38;4.50;99.90
53776;DHT22;44276;49.534;6.378;2024-03-07T00:49:06;4.50;99.90
53776;DHT22;44276;49.534;6.378;2024-03-07T00:51:34;4.40;99.90
53776;DHT22;44276;49.534;6.378;2024-03-07T00:54:06;4.20;99.90
53776;DHT22;44276;49.534;6.378;2024-03-07T00:56:35;4.10;99.90
53776;DHT22;44276;49.534;6.378;2024-03-07T00:59:04;3.90;99.90
53776;DHT22;44276;49.534;6.378;2024-03-07T01:01:32;3.90;99.90
53776;DHT22;44276;49.534;6.378;2024-03-07T01:04:03;4.00;99.90
53776;DHT22;44276;49.534;6.378;2024-03-07T01:06:31;4.10;99.90
53776;DHT22;44276;49.534;6.378;2024-03-07T01:09:00;4.30;99.90
53776;DHT22;44276;49.534;6.378;2024-03-07T01:11:28;4.40;99.90
53776;DHT22;44276;49.534;6.378;2024-03-07T01:13:58;4.60;99.90
53776;DHT22;44276;49.534;6.378;2024-03-07T01:16:27;4.60;99.90
53776;DHT22;44276;49.534;6.378;2024-03-07T01:18:55;4.40;99.90
53776;DHT22;44276;49.534;6.378;2024-03-07T01:21:23;4.40;99.90
53776;DHT22;44276;49.534;6.378;2024-03-07T01:23:52;4.50;99.90
53776;DHT22;44276;49.534;6.378;2024-03-07T01:26:21;4.50;99.90
53776;DHT22;44276;49.534;6.378;2024-03-07T01:28:50;4.50;99.90
53776;DHT22;44276;49.534;6.378;2024-03-07T01:31:20;4.40;99.90
53776;DHT22;44276;49.534;6.378;2024-03-07T01:33:49;4.40;99.90
53776;DHT22;44276;49.534;6.378;2024-03-07T01:36:18;4.40;99.90
53776;DHT22;44276;49.534;6.378;2024-03-07T01:38:46;4.40;99.90
53776;DHT22;44276;49.534;6.378;2024-03-07T01:41:15;4.40;99.90
53776;DHT22;44276;49.534;6.378;2024-03-07T01:43:44;4.40;99.90
53776;DHT22;44276;49.534;6.378;2024-03-07T01:46:13;4.50;99.90
53776;DHT22;44276;49.534;6.378;2024-03-07T01:48:43;4.50;99.90
53776;DHT22;44276;49.534;6.378;2024-03-07T01:51:13;4.50;99.90
53776;DHT22;44276;49.534;6.378;2024-03-07T01:53:42;4.40;99.90
53776;DHT22;44276;49.534;6.378;2024-03-07T01:56:12;4.50;99.90
53776;DHT22;44276;49.534;6.378;2024-03-07T01:58:42;4.60;99.90
53776;DHT22;44276;49.534;6.378;2024-03-07T02:01:10;4.80;99.90
53776;DHT22;44276;49.534;6.378;2024-03-07T02:03:43;4.90;99.90
53776;DHT22;44276;49.534;6.378;2024-03-07T02:06:11;5.10;99.90
53776;DHT22;44276;49.534;6.378;2024-03-07T02:08:40;5.10;99.90
53776;DHT22;44276;49.534;6.378;2024-03-07T02:11:08;5.10;99.90
53776;DHT22;44276;49.534;6.378;2024-03-07T02:13:37;5.20;99.90
53776;DHT22;44276;49.534;6.378;2024-03-07T02:16:06;5.40;99.90
53776;DHT22;44276;49.534;6.378;2024-03-07T02:18:35;5.50;99.90
53776;DHT22;44276;49.534;6.378;2024-03-07T02:21:07;5.60;99.90
53776;DHT22;44276;49.534;6.378;2024-03-07T02:23:38;5.80;99.90
53776;DHT22;44276;49.534;6.378;2024-03-07T02:26:08;5.70;99.90
53776;DHT22;44276;49.534;6.378;2024-03-07T02:28:36;5.80;99.90
53776;DHT22;44276;49.534;6.378;2024-03-07T02:31:04;5.90;99.90
53776;DHT22;44276;49.534;6.378;2024-03-07T02:33:33;6.00;99.90
53776;DHT22;44276;49.534;6.378;2024-03-07T02:36:01;6.20;99.90
53776;DHT22;44276;49.534;6.378;2024-03-07T02:38:31;6.10;99.90
53776;DHT22;44276;49.534;6.378;2024-03-07T02:41:01;6.20;99.90
53776;DHT22;44276;49.534;6.378;2024-03-07T02:43:29;6.20;99.90
53776;DHT22;44276;49.534;6.378;2024-03-07T02:45:58;6.10;99.90
53776;DHT22;44276;49.534;6.378;2024-03-07T02:48:26;6.00;99.90
53776;DHT22;44276;49.534;6.378;2024-03-07T02:50:55;5.90;99.90
53776;DHT22;44276;49.534;6.378;2024-03-07T02:53:24;5.90;99.90
53776;DHT22;44276;49.534;6.378;2024-03-07T02:55:54;5.90;99.90
53776;DHT22;44276;49.534;6.378;2024-03-07T02:58:22;5.90;99.90
53776;DHT22;44276;49.534;6.378;2024-03-07T03:00:57;5.90;99.90
53776;DHT22;44276;49.534;6.378;2024-03-07T03:03:26;6.00;99.90
53776;DHT22;44276;49.534;6.378;2024-03-07T03:05:58;6.00;99.90
53776;DHT22;44276;49.534;6.378;2024-03-07T03:08:26;6.10;99.90
53776;DHT22;44276;49.534;6.378;2024-03-07T03:10:57;6.10;99.90
53776;DHT22;44276;49.534;6.378;2024-03-07T03:13:25;6.10;99.90
53776;DHT22;44276;49.534;6.378;2024-03-07T03:15:54;6.10;99.90
53776;DHT22;44276;49.534;6.378;2024-03-07T03:18:24;6.20;99.90
53776;DHT22;44276;49.534;6.378;2024-03-07T03:20:52;6.30;99.90
53776;DHT22;44276;49.534;6.378;2024-03-07T03:23:20;6.30;99.90
53776;DHT22;44276;49.534;6.378;2024-03-07T03:25:49;6.30;99.90
53776;DHT22;44276;49.534;6.378;2024-03-07T03:28:19;6.30;99.90
53776;DHT22;44276;49.534;6.378;2024-03-07T03:30:48;6.20;99.90
53776;DHT22;44276;49.534;6.378;2024-03-07T03:33:17;6.20;99.90
53776;DHT22;44276;49.534;6.378;2024-03-07T03:35:47;6.20;99.90
53776;DHT22;44276;49.534;6.378;2024-03-07T03:38:16;6.10;99.90
53776;DHT22;44276;49.534;6.378;2024-03-07T03:40:46;6.00;99.90
53776;DHT22;44276;49.534;6.378;2024-03-07T03:43:15;5.90;99.90
53776;DHT22;44276;49.534;6.378;2024-03-07T03:45:45;5.70;99.90
53776;DHT22;44276;49.534;6.378;2024-03-07T03:48:14;5.70;99.90
53776;DHT22;44276;49.534;6.378;2024-03-07T03:50:43;5.70;99.90
53776;DHT22;44276;49.534;6.378;2024-03-07T03:53:13;5.50;99.90
53776;DHT22;44276;49.534;6.378;2024-03-07T03:55:42;5.50;99.90
53776;DHT22;44276;49.534;6.378;2024-03-07T03:58:10;5.40;99.90
53776;DHT22;44276;49.534;6.378;2024-03-07T04:00:39;5.30;99.90
53776;DHT22;44276;49.534;6.378;2024-03-07T04:03:25;5.20;99.90
53776;DHT22;44276;49.534;6.378;2024-03-07T04:05:56;5.20;99.90
53776;DHT22;44276;49.534;6.378;2024-03-07T04:08:27;5.20;99.90
53776;DHT22;44276;49.534;6.378;2024-03-07T04:10:57;5.10;99.90
53776;DHT22;44276;49.534;6.378;2024-03-07T04:13:32;5.00;99.90
53776;DHT22;44276;49.534;6.378;2024-03-07T04:16:04;5.00;99.90
53776;DHT22;44276;49.534;6.378;2024-03-07T04:18:35;4.80;99.90
53776;DHT22;44276;49.534;6.378;2024-03-07T04:21:22;4.70;99.90
53776;DHT22;44276;49.534;6.378;2024-03-07T04:23:55;4.60;99.90
53776;DHT22;44276;49.534;6.378;2024-03-07T04:26:26;4.40;99.90
53776;DHT22;44276;49.534;6.378;2024-03-07T04:28:56;4.20;99.90
53776;DHT22;44276;49.534;6.378;2024-03-07T04:31:25;4.10;99.90
53776;DHT22;44276;49.534;6.378;2024-03-07T04:33:54;4.00;99.90
53776;DHT22;44276;49.534;6.378;2024-03-07T04:36:23;3.90;99.90
53776;DHT22;44276;49.534;6.378;2024-03-07T04:38:51;3.90;99.90
53776;DHT22;44276;49.534;6.378;2024-03-07T04:41:20;3.80;99.90
53776;DHT22;44276;49.534;6.378;2024-03-07T04:43:49;3.80;99.90
53776;DHT22;44276;49.534;6.378;2024-03-07T04:46:17;3.70;99.90
53776;DHT22;44276;49.534;6.378;2024-03-07T04:48:45;3.60;99.90
53776;DHT22;44276;49.534;6.378;2024-03-07T04:51:15;3.70;99.90
53776;DHT22;44276;49.534;6.378;2024-03-07T04:53:44;3.80;99.90
53776;DHT22;44276;49.534;6.378;2024-03-07T04:56:12;3.90;99.90
53776;DHT22;44276;49.534;6.378;2024-03-07T04:58:41;3.90;99.90
53776;DHT22;44276;49.534;6.378;2024-03-07T05:01:09;3.90;99.90
53776;DHT22;44276;49.534;6.378;2024-03-07T05:03:38;3.90;99.90
53776;DHT22;44276;49.534;6.378;2024-03-07T05:06:06;3.80;99.90
53776;DHT22;44276;49.534;6.378;2024-03-07T05:08:36;3.70;99.90
53776;DHT22;44276;49.534;6.378;2024-03-07T05:11:04;3.70;99.90
53776;DHT22;44276;49.534;6.378;2024-03-07T05:13:32;3.50;99.90
53776;DHT22;44276;49.534;6.378;2024-03-07T05:16:01;3.00;99.90
53776;DHT22;44276;49.534;6.378;2024-03-07T05:18:29;2.60;99.90
53776;DHT22;44276;49.534;6.378;2024-03-07T05:20:58;2.30;99.90
53776;DHT22;44276;49.534;6.378;2024-03-07T05:23:48;2.40;99.90
53776;DHT22;44276;49.534;6.378;2024-03-07T05:26:16;2.20;99.90
53776;DHT22;44276;49.534;6.378;2024-03-07T05:28:45;2.00;99.90
53776;DHT22;44276;49.534;6.378;2024-03-07T05:31:13;1.90;99.90
53776;DHT22;44276;49.534;6.378;2024-03-07T05:33:41;1.80;99.90
53776;DHT22;44276;49.534;6.378;2024-03-07T05:36:10;1.70;99.90
53776;DHT22;44276;49.534;6.378;2024-03-07T05:38:41;1.60;99.90
53776;DHT22;44276;49.534;6.378;2024-03-07T05:41:12;1.70;99.90
53776;DHT22;44276;49.534;6.378;2024-03-07T05:43:40;1.90;99.90
53776;DHT22;44276;49.534;6.378;2024-03-07T05:46:10;2.20;99.90
53776;DHT22;44276;49.534;6.378;2024-03-07T05:48:38;2.50;99.90
53776;DHT22;44276;49.534;6.378;2024-03-07T05:51:07;2.50;99.90
53776;DHT22;44276;49.534;6.378;2024-03-07T05:53:37;2.50;99.90
53776;DHT22;44276;49.534;6.378;2024-03-07T05:56:05;2.50;99.90
53776;DHT22;44276;49.534;6.378;2024-03-07T05:58:37;2.60;99.90
53776;DHT22;44276;49.534;6.378;2024-03-07T06:01:06;2.60;99.90
53776;DHT22;44276;49.534;6.378;2024-03-07T06:03:35;2.70;99.90
53776;DHT22;44276;49.534;6.378;2024-03-07T06:06:04;2.60;99.90
53776;DHT22;44276;49.534;6.378;2024-03-07T06:08:38;2.50;99.90
53776;DHT22;44276;49.534;6.378;2024-03-07T06:11:09;2.10;99.90
53776;DHT22;44276;49.534;6.378;2024-03-07T06:13:39;1.80;99.90
53776;DHT22;44276;49.534;6.378;2024-03-07T06:16:07;1.60;99.90
53776;DHT22;44276;49.534;6.378;2024-03-07T06:18:36;1.50;99.90
53776;DHT22;44276;49.534;6.378;2024-03-07T06:21:04;1.40;99.90
53776;DHT22;44276;49.534;6.378;2024-03-07T06:23:33;1.40;99.90
53776;DHT22;44276;49.534;6.378;2024-03-07T06:26:01;1.40;99.90
53776;DHT22;44276;49.534;6.378;2024-03-07T06:28:40;1.40;99.90
53776;DHT22;44276;49.534;6.378;2024-03-07T06:31:09;1.40;99.90
53776;DHT22;44276;49.534;6.378;2024-03-07T06:33:38;1.50;99.90
53776;DHT22;44276;49.534;6.378;2024-03-07T06:36:06;1.60;99.90
53776;DHT22;44276;49.534;6.378;2024-03-07T06:38:35;1.60;99.90
53776;DHT22;44276;49.534;6.378;2024-03-07T06:41:04;1.50;99.90
53776;DHT22;44276;49.534;6.378;2024-03-07T06:43:32;1.70;99.90
53776;DHT22;44276;49.534;6.378;2024-03-07T06:46:02;1.60;99.90
53776;DHT22;44276;49.534;6.378;2024-03-07T06:48:31;1.80;99.90
53776;DHT22;44276;49.534;6.378;2024-03-07T06:51:00;1.80;99.90
53776;DHT22;44276;49.534;6.378;2024-03-07T06:53:28;2.00;99.90
53776;DHT22;44276;49.534;6.378;2024-03-07T06:55:57;2.50;99.90
53776;DHT22;44276;49.534;6.378;2024-03-07T06:58:25;2.80;99.90
53776;DHT22;44276;49.534;6.378;2024-03-07T07:00:56;2.90;99.90
53776;DHT22;44276;49.534;6.378;2024-03-07T07:03:28;3.00;99.90
53776;DHT22;44276;49.534;6.378;2024-03-07T07:05:56;3.10;99.90
53776;DHT22;44276;49.534;6.378;2024-03-07T07:08:26;3.20;99.90
53776;DHT22;44276;49.534;6.378;2024-03-07T07:10:56;3.30;99.90
53776;DHT22;44276;49.534;6.378;2024-03-07T07:13:24;3.40;99.90
53776;DHT22;44276;49.534;6.378;2024-03-07T07:15:52;3.50;99.90
53776;DHT22;44276;49.534;6.378;2024-03-07T07:18:21;3.60;99.90
53776;DHT22;44276;49.534;6.378;2024-03-07T07:20:52;3.70;99.90
53776;DHT22;44276;49.534;6.378;2024-03-07T07:23:21;3.80;99.90
53776;DHT22;44276;49.534;6.378;2024-03-07T07:25:50;4.00;99.90
53776;DHT22;44276;49.534;6.378;2024-03-07T07:28:18;4.20;99.90
53776;DHT22;44276;49.534;6.378;2024-03-07T07:30:46;4.30;99.90
53776;DHT22;44276;49.534;6.378;2024-03-07T07:33:15;4.60;99.90
53776;DHT22;44276;49.534;6.378;2024-03-07T07:35:45;4.80;99.90
53776;DHT22;44276;49.534;6.378;2024-03-07T07:38:15;4.80;99.90
53776;DHT22;44276;49.534;6.378;2024-03-07T07:40:43;5.00;99.90
53776;DHT22;44276;49.534;6.378;2024-03-07T07:43:11;5.10;99.90
53776;DHT22;44276;49.534;6.378;2024-03-07T07:45:51;5.30;99.90
53776;DHT22;44276;49.534;6.378;2024-03-07T07:48:20;5.50;99.90
53776;DHT22;44276;49.534;6.378;2024-03-07T07:50:49;5.60;99.90
53776;DHT22;44276;49.534;6.378;2024-03-07T07:53:19;5.90;99.90
53776;DHT22;44276;49.534;6.378;2024-03-07T07:55:48;6.70;99.90
53776;DHT22;44276;49.534;6.378;2024-03-07T07:58:16;7.90;99.90
53776;DHT22;44276;49.534;6.378;2024-03-07T08:00:45;9.00;99.90
53776;DHT22;44276;49.534;6.378;2024-03-07T08:03:16;9.80;99.90
53776;DHT22;44276;49.534;6.378;2024-03-07T08:05:44;10.70;99.90
53776;DHT22;44276;49.534;6.378;2024-03-07T08:08:13;11.50;99.90
53776;DHT22;44276;49.534;6.378;2024-03-07T08:10:45;12.40;99.90
53776;DHT22;44276;49.534;6.378;2024-03-07T08:13:15;13.10;91.00
53776;DHT22;44276;49.534;6.378;2024-03-07T08:15:43;13.20;81.00
53776;DHT22;44276;49.534;6.378;2024-03-07T08:18:12;13.00;71.50
53776;DHT22;44276;49.534;6.378;2024-03-07T08:20:40;13.10;67.00
53776;DHT22;44276;49.534;6.378;2024-03-07T08:23:10;13.10;61.40
53776;DHT22;44276;49.534;6.378;2024-03-07T08:25:39;12.90;58.90
53776;DHT22;44276;49.534;6.378;2024-03-07T08:28:10;13.00;55.00
53776;DHT22;44276;49.534;6.378;2024-03-07T08:30:38;13.20;52.20
53776;DHT22;44276;49.534;6.378;2024-03-07T08:33:07;13.50;48.60
53776;DHT22;44276;49.534;6.378;2024-03-07T08:35:37;13.40;47.30
53776;DHT22;44276;49.534;6.378;2024-03-07T08:38:05;13.20;44.90
53776;DHT22;44276;49.534;6.378;2024-03-07T08:40:35;13.10;44.50
53776;DHT22;44276;49.534;6.378;2024-03-07T08:43:04;13.10;42.50
53776;DHT22;44276;49.534;6.378;2024-03-07T08:45:35;13.00;41.20
53776;DHT22;44276;49.534;6.378;2024-03-07T08:48:04;13.10;41.10
53776;DHT22;44276;49.534;6.378;2024-03-07T08:50:34;12.90;40.60
53776;DHT22;44276;49.534;6.378;2024-03-07T08:53:05;13.40;40.40
53776;DHT22;44276;49.534;6.378;2024-03-07T08:55:35;13.50;37.80
53776;DHT22;44276;49.534;6.378;2024-03-07T08:58:04;13.30;36.60
53776;DHT22;44276;49.534;6.378;2024-03-07T09:00:36;13.20;35.60
53776;DHT22;44276;49.534;6.378;2024-03-07T09:03:06;13.20;35.40
53776;DHT22;44276;49.534;6.378;2024-03-07T09:05:38;13.70;36.80
53776;DHT22;44276;49.534;6.378;2024-03-07T09:08:08;13.40;33.70
53776;DHT22;44276;49.534;6.378;2024-03-07T09:10:37;13.00;34.60
53776;DHT22;44276;49.534;6.378;2024-03-07T09:13:08;13.50;34.30
53776;DHT22;44276;49.534;6.378;2024-03-07T09:15:38;14.10;34.30
53776;DHT22;44276;49.534;6.378;2024-03-07T09:18:06;13.90;31.60
53776;DHT22;44276;49.534;6.378;2024-03-07T09:20:35;14.10;32.00
53776;DHT22;44276;49.534;6.378;2024-03-07T09:23:04;14.10;30.60
53776;DHT22;44276;49.534;6.378;2024-03-07T09:25:34;13.70;31.60
53776;DHT22;44276;49.534;6.378;2024-03-07T09:28:03;13.70;30.50
53776;DHT22;44276;49.534;6.378;2024-03-07T09:30:33;14.20;30.60
53776;DHT22;44276;49.534;6.378;2024-03-07T09:33:06;14.70;29.70
53776;DHT22;44276;49.534;6.378;2024-03-07T09:35:39;14.90;28.50
53776;DHT22;44276;49.534;6.378;2024-03-07T09:38:07;15.00;27.90
53776;DHT22;44276;49.534;6.378;2024-03-07T09:40:35;15.20;27.70
53776;DHT22;44276;49.534;6.378;2024-03-07T09:43:04;15.00;27.30
53776;DHT22;44276;49.534;6.378;2024-03-07T09:45:37;15.20;27.50
53776;DHT22;44276;49.534;6.378;2024-03-07T09:48:07;14.90;26.90
53776;DHT22;44276;49.534;6.378;2024-03-07T09:50:37;14.80;27.60
53776;DHT22;44276;49.534;6.378;2024-03-07T09:53:07;15.40;27.20
53776;DHT22;44276;49.534;6.378;2024-03-07T09:55:37;16.80;25.70
53776;DHT22;44276;49.534;6.378;2024-03-07T09:58:05;16.40;25.30
53776;DHT22;44276;49.534;6.378;2024-03-07T10:00:37;15.30;26.20
53776;DHT22;44276;49.534;6.378;2024-03-07T10:03:09;14.50;26.80
53776;DHT22;44276;49.534;6.378;2024-03-07T10:05:41;13.40;28.30
53776;DHT22;44276;49.534;6.378;2024-03-07T10:08:10;13.60;27.90
53776;DHT22;44276;49.534;6.378;2024-03-07T10:10:39;14.10;27.30
53776;DHT22;44276;49.534;6.378;2024-03-07T10:13:08;14.20;27.10
53776;DHT22;44276;49.534;6.378;2024-03-07T10:15:36;13.40;28.20
53776;DHT22;44276;49.534;6.378;2024-03-07T10:18:08;12.50;29.10
53776;DHT22;44276;49.534;6.378;2024-03-07T10:20:37;12.70;30.30
53776;DHT22;44276;49.534;6.378;2024-03-07T10:23:08;13.90;27.60
53776;DHT22;44276;49.534;6.378;2024-03-07T10:25:37;14.60;27.20
53776;DHT22;44276;49.534;6.378;2024-03-07T10:28:06;15.50;25.40
53776;DHT22;44276;49.534;6.378;2024-03-07T10:30:40;15.10;25.30
53776;DHT22;44276;49.534;6.378;2024-03-07T10:33:12;15.20;25.50
53776;DHT22;44276;49.534;6.378;2024-03-07T10:35:42;16.50;24.30
53776;DHT22;44276;49.534;6.378;2024-03-07T10:38:10;17.60;23.40
53776;DHT22;44276;49.534;6.378;2024-03-07T10:40:41;18.20;22.40
53776;DHT22;44276;49.534;6.378;2024-03-07T10:43:11;17.80;21.70
53776;DHT22;44276;49.534;6.378;2024-03-07T10:45:44;17.20;22.20
53776;DHT22;44276;49.534;6.378;2024-03-07T10:48:18;17.00;21.60
53776;DHT22;44276;49.534;6.378;2024-03-07T10:51:01;16.50;21.90
53776;DHT22;44276;49.534;6.378;2024-03-07T10:53:45;17.00;21.50
53776;DHT22;44276;49.534;6.378;2024-03-07T10:56:33;17.80;20.10
53776;DHT22;44276;49.534;6.378;2024-03-07T10:59:17;16.80;20.20
53776;DHT22;44276;49.534;6.378;2024-03-07T11:01:49;17.80;20.20
53776;DHT22;44276;49.534;6.378;2024-03-07T11:04:25;18.20;20.30
53776;DHT22;44276;49.534;6.378;2024-03-07T11:06:54;18.40;19.50
53776;DHT22;44276;49.534;6.378;2024-03-07T11:09:23;18.00;20.40
53776;DHT22;44276;49.534;6.378;2024-03-07T11:11:56;17.60;20.80
53776;DHT22;44276;49.534;6.378;2024-03-07T11:14:27;16.00;21.70
53776;DHT22;44276;49.534;6.378;2024-03-07T11:16:56;15.70;21.70
53776;DHT22;44276;49.534;6.378;2024-03-07T11:19:27;15.60;23.20
53776;DHT22;44276;49.534;6.378;2024-03-07T11:21:58;16.00;22.70
53776;DHT22;44276;49.534;6.378;2024-03-07T11:24:29;16.20;21.60
53776;DHT22;44276;49.534;6.378;2024-03-07T11:27:04;16.70;21.30
53776;DHT22;44276;49.534;6.378;2024-03-07T11:29:42;17.10;21.60
53776;DHT22;44276;49.534;6.378;2024-03-07T11:32:15;16.40;20.80
53776;DHT22;44276;49.534;6.378;2024-03-07T11:34:45;15.30;22.10
53776;DHT22;44276;49.534;6.378;2024-03-07T11:37:17;14.60;22.70
53776;DHT22;44276;49.534;6.378;2024-03-07T11:39:50;13.70;23.70
53776;DHT22;44276;49.534;6.378;2024-03-07T11:42:24;14.20;23.90
53776;DHT22;44276;49.534;6.378;2024-03-07T11:44:54;14.90;24.30
53776;DHT22;44276;49.534;6.378;2024-03-07T11:47:24;14.50;21.90
53776;DHT22;44276;49.534;6.378;2024-03-07T11:49:57;14.60;22.30
53776;DHT22;44276;49.534;6.378;2024-03-07T11:52:26;15.20;21.90
53776;DHT22;44276;49.534;6.378;2024-03-07T11:54:55;15.20;22.20
53776;DHT22;44276;49.534;6.378;2024-03-07T11:57:31;16.20;21.00
53776;DHT22;44276;49.534;6.378;2024-03-07T12:00:02;16.70;20.50
53776;DHT22;44276;49.534;6.378;2024-03-07T12:02:36;16.00;20.80
53776;DHT22;44276;49.534;6.378;2024-03-07T12:05:08;15.60;20.00
53776;DHT22;44276;49.534;6.378;2024-03-07T12:07:36;16.30;21.00
53776;DHT22;44276;49.534;6.378;2024-03-07T12:10:05;16.30;20.30
53776;DHT22;44276;49.534;6.378;2024-03-07T12:12:34;16.00;20.20
53776;DHT22;44276;49.534;6.378;2024-03-07T12:15:07;16.00;20.80
53776;DHT22;44276;49.534;6.378;2024-03-07T12:17:45;15.10;21.70
53776;DHT22;44276;49.534;6.378;2024-03-07T12:20:18;14.80;20.50
53776;DHT22;44276;49.534;6.378;2024-03-07T12:22:57;14.60;20.50
53776;DHT22;44276;49.534;6.378;2024-03-07T12:25:28;13.90;21.70
53776;DHT22;44276;49.534;6.378;2024-03-07T12:28:01;13.50;21.30
53776;DHT22;44276;49.534;6.378;2024-03-07T12:30:34;13.40;23.00
53776;DHT22;44276;49.534;6.378;2024-03-07T12:33:04;14.00;22.70
53776;DHT22;44276;49.534;6.378;2024-03-07T12:35:37;14.40;21.80
53776;DHT22;44276;49.534;6.378;2024-03-07T12:38:05;14.80;22.70
53776;DHT22;44276;49.534;6.378;2024-03-07T12:40:33;15.50;20.70
53776;DHT22;44276;49.534;6.378;2024-03-07T12:43:13;15.30;19.60
53776;DHT22;44276;49.534;6.378;2024-03-07T12:45:45;15.30;20.40
53776;DHT22;44276;49.534;6.378;2024-03-07T12:48:15;15.30;21.40
53776;DHT22;44276;49.534;6.378;2024-03-07T12:50:47;15.40;20.30
53776;DHT22;44276;49.534;6.378;2024-03-07T12:53:20;15.50;20.40
53776;DHT22;44276;49.534;6.378;2024-03-07T12:55:49;14.00;22.10
53776;DHT22;44276;49.534;6.378;2024-03-07T12:58:19;13.60;24.00
53776;DHT22;44276;49.534;6.378;2024-03-07T13:00:49;13.90;22.50
53776;DHT22;44276;49.534;6.378;2024-03-07T13:03:17;13.60;23.00
53776;DHT22;44276;49.534;6.378;2024-03-07T13:05:48;13.80;22.20
53776;DHT22;44276;49.534;6.378;2024-03-07T13:08:17;14.00;22.30
53776;DHT22;44276;49.534;6.378;2024-03-07T13:10:45;13.50;22.00
53776;DHT22;44276;49.534;6.378;2024-03-07T13:13:17;13.30;24.00
53776;DHT22;44276;49.534;6.378;2024-03-07T13:15:47;13.50;23.40
53776;DHT22;44276;49.534;6.378;2024-03-07T13:18:15;13.60;23.30
53776;DHT22;44276;49.534;6.378;2024-03-07T13:20:44;13.20;22.50
53776;DHT22;44276;49.534;6.378;2024-03-07T13:23:14;13.10;22.10
53776;DHT22;44276;49.534;6.378;2024-03-07T13:25:43;12.90;22.90
53776;DHT22;44276;49.534;6.378;2024-03-07T13:28:13;13.30;22.40
53776;DHT22;44276;49.534;6.378;2024-03-07T13:30:44;13.20;22.90
53776;DHT22;44276;49.534;6.378;2024-03-07T13:33:16;13.20;22.00
53776;DHT22;44276;49.534;6.378;2024-03-07T13:35:45;12.90;22.50
53776;DHT22;44276;49.534;6.378;2024-03-07T13:38:15;12.60;21.80
53776;DHT22;44276;49.534;6.378;2024-03-07T13:40:45;13.00;21.50
53776;DHT22;44276;49.534;6.378;2024-03-07T13:43:17;13.10;22.10
53776;DHT22;44276;49.534;6.378;2024-03-07T13:45:45;13.30;22.00
53776;DHT22;44276;49.534;6.378;2024-03-07T13:48:15;14.20;22.50
53776;DHT22;44276;49.534;6.378;2024-03-07T13:50:46;13.70;20.90
53776;DHT22;44276;49.534;6.378;2024-03-07T13:53:27;13.30;21.20
53776;DHT22;44276;49.534;6.378;2024-03-07T13:56:28;13.10;22.10
53776;DHT22;44276;49.534;6.378;2024-03-07T13:59:31;12.50;23.20
53776;DHT22;44276;49.534;6.378;2024-03-07T14:02:41;12.30;23.30
53776;DHT22;44276;49.534;6.378;2024-03-07T14:06:38;12.30;22.60
53776;DHT22;44276;49.534;6.378;2024-03-07T14:15:45;12.30;23.80
53776;DHT22;44276;49.534;6.378;2024-03-07T14:22:01;12.60;22.80
53776;DHT22;44276;49.534;6.378;2024-03-07T14:28:14;12.30;25.00
53776;DHT22;44276;49.534;6.378;2024-03-07T14:30:57;12.70;22.90
53776;DHT22;44276;49.534;6.378;2024-03-07T14:33:27;12.40;22.90
53776;DHT22;44276;49.534;6.378;2024-03-07T14:36:07;12.40;23.30
53776;DHT22;44276;49.534;6.378;2024-03-07T14:38:44;11.80;22.90
53776;DHT22;44276;49.534;6.378;2024-03-07T14:41:20;11.60;24.00
53776;DHT22;44276;49.534;6.378;2024-03-07T14:43:52;11.90;23.70
53776;DHT22;44276;49.534;6.378;2024-03-07T14:46:21;11.80;23.70
53776;DHT22;44276;49.534;6.378;2024-03-07T14:48:50;11.70;23.30
53776;DHT22;44276;49.534;6.378;2024-03-07T14:51:19;11.60;23.00
53776;DHT22;44276;49.534;6.378;2024-03-07T14:53:47;11.50;23.10
53776;DHT22;44276;49.534;6.378;2024-03-07T14:56:16;11.50;23.40
53776;DHT22;44276;49.534;6.378;2024-03-07T14:58:48;11.40;24.20
53776;DHT22;44276;49.534;6.378;2024-03-07T15:01:16;11.60;23.60
53776;DHT22;44276;49.534;6.378;2024-03-07T15:03:45;11.70;23.10
53776;DHT22;44276;49.534;6.378;2024-03-07T15:06:14;11.50;24.00
53776;DHT22;44276;49.534;6.378;2024-03-07T15:08:43;11.40;23.60
53776;DHT22;44276;49.534;6.378;2024-03-07T15:11:16;11.30;24.20
53776;DHT22;44276;49.534;6.378;2024-03-07T15:13:49;11.10;24.70
53776;DHT22;44276;49.534;6.378;2024-03-07T15:16:17;11.10;25.00
53776;DHT22;44276;49.534;6.378;2024-03-07T15:18:59;11.60;25.30
53776;DHT22;44276;49.534;6.378;2024-03-07T15:21:28;11.80;23.70
53776;DHT22;44276;49.534;6.378;2024-03-07T15:23:57;11.60;24.30
53776;DHT22;44276;49.534;6.378;2024-03-07T15:26:27;11.80;23.90
53776;DHT22;44276;49.534;6.378;2024-03-07T15:28:59;12.00;24.90
53776;DHT22;44276;49.534;6.378;2024-03-07T15:31:28;11.70;25.10
53776;DHT22;44276;49.534;6.378;2024-03-07T15:33:57;11.70;25.80
53776;DHT22;44276;49.534;6.378;2024-03-07T15:36:26;11.30;25.00
53776;DHT22;44276;49.534;6.378;2024-03-07T15:38:56;11.00;26.00
53776;DHT22;44276;49.534;6.378;2024-03-07T15:41:25;10.80;26.50
53776;DHT22;44276;49.534;6.378;2024-03-07T15:43:54;10.00;27.10
53776;DHT22;44276;49.534;6.378;2024-03-07T15:46:24;10.10;27.10
53776;DHT22;44276;49.534;6.378;2024-03-07T15:48:52;10.30;28.80
53776;DHT22;44276;49.534;6.378;2024-03-07T15:51:21;10.60;28.20
53776;DHT22;44276;49.534;6.378;2024-03-07T15:53:49;10.80;27.10
53776;DHT22;44276;49.534;6.378;2024-03-07T15:56:17;10.40;26.80
53776;DHT22;44276;49.534;6.378;2024-03-07T15:58:46;10.20;27.50
53776;DHT22;44276;49.534;6.378;2024-03-07T16:01:14;10.00;28.40
53776;DHT22;44276;49.534;6.378;2024-03-07T16:03:45;9.80;29.20
53776;DHT22;44276;49.534;6.378;2024-03-07T16:06:14;9.90;30.20
53776;DHT22;44276;49.534;6.378;2024-03-07T16:08:43;10.00;28.70
53776;DHT22;44276;49.534;6.378;2024-03-07T16:11:12;10.10;28.60
53776;DHT22;44276;49.534;6.378;2024-03-07T16:13:41;9.80;29.70